createdAt,value
2018-01-10T00:01:26.057Z,79.00
2018-01-10T00:03:53.559Z,79.40
2018-01-10T00:06:21.083Z,79.50
2018-01-10T00:08:48.963Z,79.80
2018-01-10T00:11:16.473Z,79.60
2018-01-10T00:13:44.391Z,79.60
2018-01-10T00:16:12.278Z,79.70
2018-01-10T00:18:39.902Z,79.40
2018-01-10T00:21:07.398Z,79.40
2018-01-10T00:23:34.913Z,79.50
2018-01-10T00:26:03.176Z,79.20
2018-01-10T00:28:31.099Z,79.80
2018-01-10T00:30:59.015Z,80.20
2018-01-10T00:33:26.532Z,80.50
2018-01-10T00:35:54.431Z,80.50
2018-01-10T00:38:21.955Z,80.80
2018-01-10T00:40:49.851Z,80.80
2018-01-10T00:43:17.738Z,80.80
2018-01-10T00:45:45.250Z,81.00
2018-01-10T00:48:13.148Z,81.10
2018-01-10T00:50:41.059Z,81.10
2018-01-10T00:53:08.582Z,80.90
2018-01-10T00:55:36.098Z,80.60
2018-01-10T00:58:03.602Z,80.40
2018-01-10T01:00:31.119Z,80.40
2018-01-10T01:02:58.614Z,80.80
2018-01-10T01:05:26.894Z,81.10
2018-01-10T01:07:54.782Z,81.70
2018-01-10T01:10:22.690Z,81.90
2018-01-10T01:12:50.190Z,82.00
2018-01-10T01:15:17.702Z,81.90
2018-01-10T01:17:45.234Z,82.00
2018-01-10T01:20:13.866Z,82.00
2018-01-10T01:22:42.139Z,81.80
2018-01-10T01:25:09.626Z,81.70
2018-01-10T01:27:37.555Z,81.50
2018-01-10T01:30:05.055Z,81.50
2018-01-10T01:32:33.726Z,81.50
2018-01-10T01:35:01.222Z,81.30
2018-01-10T01:37:29.127Z,81.20
2018-01-10T01:39:57.015Z,81.10
2018-01-10T01:42:25.296Z,80.90
2018-01-10T01:44:53.271Z,81.00
2018-01-10T01:47:20.791Z,81.10
2018-01-10T01:49:48.294Z,81.10
2018-01-10T01:52:15.807Z,81.10
2018-01-10T01:54:43.728Z,81.10
2018-01-10T01:57:11.247Z,81.20
2018-01-10T01:59:39.541Z,81.40
2018-01-10T02:02:07.043Z,81.50
2018-01-10T02:04:34.560Z,81.40
2018-01-10T02:07:02.060Z,81.40
2018-01-10T02:09:29.595Z,81.40
2018-01-10T02:11:57.093Z,81.30
2018-01-10T02:14:25.047Z,81.30
2018-01-10T02:16:52.943Z,81.30
2018-01-10T02:19:20.435Z,81.40
2018-01-10T02:21:47.963Z,81.30
2018-01-10T02:24:15.455Z,81.40
2018-01-10T02:26:42.976Z,81.40
2018-01-10T02:29:11.231Z,81.30
2018-01-10T02:31:39.139Z,81.20
2018-01-10T02:34:07.030Z,81.10
2018-01-10T02:36:34.950Z,81.20
2018-01-10T02:39:02.444Z,81.20
2018-01-10T02:41:30.327Z,81.30
2018-01-10T02:43:58.247Z,81.50
2018-01-10T02:46:25.773Z,81.70
2018-01-10T02:48:53.299Z,81.80
2018-01-10T02:51:21.189Z,81.90
2018-01-10T02:53:49.482Z,81.90
2018-01-10T02:56:16.970Z,81.70
2018-01-10T02:58:44.500Z,81.60
2018-01-10T03:01:12.394Z,81.30
2018-01-10T03:03:40.413Z,81.70
2018-01-10T03:06:08.311Z,81.70
2018-01-10T03:08:35.933Z,81.50
2018-01-10T03:11:03.427Z,81.50
2018-01-10T03:13:30.927Z,81.40
2018-01-10T03:15:58.842Z,81.50
2018-01-10T03:18:26.742Z,81.50
2018-01-10T03:20:55.023Z,81.50
2018-01-10T03:23:22.921Z,81.40
2018-01-10T03:25:51.215Z,81.50
2018-01-10T03:28:19.114Z,81.40
2018-01-10T03:30:47.035Z,81.40
2018-01-10T03:33:14.536Z,81.50
2018-01-10T03:35:42.443Z,81.80
2018-01-10T03:38:09.965Z,81.80
2018-01-10T03:43:58.966Z,82.70
2018-01-10T03:46:26.467Z,83.10
2018-01-10T03:48:53.978Z,83.30
2018-01-10T03:51:21.474Z,83.50
2018-01-10T03:53:49.385Z,83.50
2018-01-10T03:56:17.275Z,83.50
2018-01-10T03:58:45.187Z,83.30
2018-01-10T04:01:13.831Z,83.00
2018-01-10T04:03:41.764Z,82.70
2018-01-10T04:06:09.265Z,82.60
2018-01-10T04:08:36.790Z,82.40
2018-01-10T04:11:04.293Z,82.80
2018-01-10T04:13:32.218Z,83.20
2018-01-10T04:15:59.732Z,83.20
2018-01-10T04:18:27.635Z,83.40
2018-01-10T04:20:55.174Z,83.50
2018-01-10T04:23:23.066Z,83.80
2018-01-10T04:25:50.583Z,83.70
2018-01-10T04:28:18.466Z,83.70
2018-01-10T04:30:46.381Z,83.50
2018-01-10T04:33:13.886Z,83.10
2018-01-10T04:35:41.406Z,82.90
2018-01-10T04:38:09.304Z,82.90
2018-01-10T04:40:36.851Z,83.10
2018-01-10T04:43:04.342Z,83.40
2018-01-10T04:45:33.004Z,83.70
2018-01-10T04:48:00.910Z,83.50
2018-01-10T04:50:28.815Z,83.40
2018-01-10T04:52:57.471Z,83.20
2018-01-10T04:55:25.362Z,83.40
2018-01-10T04:57:53.274Z,83.80
2018-01-10T05:00:21.170Z,84.00
2018-01-10T05:02:48.699Z,84.20
2018-01-10T05:05:16.599Z,84.20
2018-01-10T05:07:44.512Z,84.30
2018-01-10T05:10:12.453Z,84.10
2018-01-10T05:12:39.997Z,83.80
2018-01-10T05:15:07.487Z,83.80
2018-01-10T05:17:35.394Z,83.40
2018-01-10T05:20:02.878Z,83.10
2018-01-10T05:22:30.775Z,83.40
2018-01-10T05:24:58.678Z,83.70
2018-01-10T05:27:26.947Z,83.40
2018-01-10T05:29:54.863Z,83.70
2018-01-10T05:32:22.358Z,83.90
2018-01-10T05:34:49.898Z,84.20
2018-01-10T05:37:17.809Z,83.90
2018-01-10T05:39:45.331Z,83.70
2018-01-10T05:42:13.602Z,83.70
2018-01-10T05:44:41.517Z,83.50
2018-01-10T05:49:38.274Z,83.30
2018-01-10T05:52:06.172Z,83.50
2018-01-10T05:54:34.065Z,83.70
2018-01-10T05:57:01.975Z,83.50
2018-01-10T05:59:29.876Z,83.40
2018-01-10T06:01:57.680Z,83.50
2018-01-10T06:04:26.518Z,84.00
2018-01-10T06:06:54.838Z,83.90
2018-01-10T06:09:22.742Z,83.90
2018-01-10T06:11:50.260Z,83.50
2018-01-10T06:14:17.804Z,83.40
2018-01-10T06:16:46.979Z,83.80
2018-01-10T06:19:14.878Z,83.70
2018-01-10T06:21:42.827Z,83.80
2018-01-10T06:24:10.323Z,83.40
2018-01-10T06:26:37.960Z,83.20
2018-01-10T06:29:05.929Z,83.40
2018-01-10T06:31:33.851Z,84.00
2018-01-10T06:34:01.750Z,84.10
2018-01-10T06:36:29.279Z,84.10
2018-01-10T06:38:56.770Z,84.20
2018-01-10T06:41:24.250Z,84.10
2018-01-10T06:43:51.777Z,83.90
2018-01-10T06:46:19.678Z,83.90
2018-01-10T06:48:47.591Z,83.80
2018-01-10T06:51:15.082Z,83.70
2018-01-10T06:53:42.986Z,83.40
2018-01-10T06:56:11.242Z,83.50
2018-01-10T06:58:39.181Z,83.40
2018-01-10T07:01:06.671Z,83.30
2018-01-10T07:03:35.322Z,83.40
2018-01-10T07:06:03.218Z,83.20
2018-01-10T07:08:30.734Z,83.10
2018-01-10T07:10:58.626Z,83.50
2018-01-10T07:13:26.547Z,83.70
2018-01-10T07:15:54.056Z,83.80
2018-01-10T07:18:22.354Z,84.00
2018-01-10T07:20:50.253Z,83.90
2018-01-10T07:23:18.162Z,83.50
2018-01-10T07:25:46.050Z,83.30
2018-01-10T07:28:13.562Z,83.70
2018-01-10T07:30:41.453Z,83.40
2018-01-10T07:33:08.969Z,83.80
2018-01-10T07:35:36.459Z,84.10
2018-01-10T07:38:04.363Z,84.60
2018-01-10T07:40:32.262Z,84.70
2018-01-10T07:42:59.794Z,84.50
2018-01-10T07:45:27.680Z,84.30
2018-01-10T07:47:55.194Z,84.30
2018-01-10T07:50:22.690Z,83.90
2018-01-10T07:52:50.612Z,83.70
2018-01-10T07:55:18.108Z,83.50
2018-01-10T07:57:46.022Z,83.50
2018-01-10T08:00:13.916Z,83.90
2018-01-10T08:02:41.807Z,84.10
2018-01-10T08:05:09.314Z,84.10
2018-01-10T08:07:37.211Z,83.90
2018-01-10T08:10:04.725Z,83.90
2018-01-10T08:12:32.231Z,83.80
2018-01-10T08:14:59.748Z,83.70
2018-01-10T08:17:27.638Z,83.50
2018-01-10T08:19:55.151Z,83.20
2018-01-10T08:22:22.654Z,83.30
2018-01-10T08:24:50.190Z,83.30
2018-01-10T08:27:17.682Z,83.70
2018-01-10T08:29:45.591Z,83.90
2018-01-10T08:32:13.518Z,84.00
2018-01-10T08:34:41.419Z,84.30
2018-01-10T08:37:08.946Z,84.10
2018-01-10T08:39:36.839Z,83.90
2018-01-10T08:42:04.372Z,83.50
2018-01-10T08:44:31.874Z,83.10
2018-01-10T08:47:00.152Z,82.50
2018-01-10T08:49:27.658Z,82.60
2018-01-10T08:51:55.973Z,82.50
2018-01-10T08:54:23.868Z,82.30
2018-01-10T08:56:51.366Z,82.00
2018-01-10T08:59:18.876Z,82.10
2018-01-10T09:01:46.386Z,82.30
2018-01-10T09:04:13.911Z,82.00
2018-01-10T09:06:41.426Z,82.10
2018-01-10T09:09:08.952Z,82.50
2018-01-10T09:11:36.445Z,82.40
2018-01-10T09:14:04.368Z,82.50
2018-01-10T09:16:31.866Z,82.30
2018-01-10T09:18:59.394Z,82.10
2018-01-10T09:21:26.887Z,81.70
2018-01-10T09:23:54.389Z,81.00
2018-01-10T09:26:22.294Z,80.20
2018-01-10T09:28:49.800Z,79.20
2018-01-10T09:31:17.305Z,79.10
2018-01-10T09:33:44.790Z,78.70
2018-01-10T09:36:13.447Z,78.00
2018-01-10T09:38:41.377Z,78.00
2018-01-10T09:41:09.662Z,77.50
2018-01-10T09:43:37.158Z,77.20
2018-01-10T09:46:05.098Z,76.30
2018-01-10T09:48:32.619Z,75.90
2018-01-10T09:51:00.115Z,75.90
2018-01-10T09:53:27.628Z,75.60
2018-01-10T09:55:55.518Z,76.00
2018-01-10T09:58:23.807Z,76.30
2018-01-10T10:00:51.308Z,76.10
2018-01-10T10:03:18.824Z,75.70
2018-01-10T10:05:46.314Z,75.40
2018-01-10T10:08:14.226Z,74.90
2018-01-10T10:10:41.714Z,75.10
2018-01-10T10:13:09.247Z,75.30
2018-01-10T10:15:37.152Z,75.20
2018-01-10T10:18:04.758Z,75.10
2018-01-10T10:20:32.278Z,75.40
2018-01-10T10:23:00.179Z,74.90
2018-01-10T10:25:27.728Z,74.30
2018-01-10T10:27:55.189Z,74.20
2018-01-10T10:30:23.107Z,74.20
2018-01-10T10:32:50.598Z,74.10
2018-01-10T10:35:18.560Z,73.30
2018-01-10T10:37:46.453Z,74.30
2018-01-10T10:40:13.962Z,74.30
2018-01-10T10:42:41.454Z,74.50
2018-01-10T10:45:08.978Z,74.50
2018-01-10T10:47:36.470Z,74.40
2018-01-10T10:50:05.109Z,74.30
2018-01-10T10:52:34.130Z,74.10
2018-01-10T10:55:03.312Z,73.80
2018-01-10T10:57:30.861Z,74.00
2018-01-10T10:59:58.346Z,73.70
2018-01-10T11:02:25.876Z,73.90
2018-01-10T11:04:53.381Z,73.80
2018-01-10T11:07:21.299Z,74.20
2018-01-10T11:09:48.803Z,74.00
2018-01-10T11:12:17.478Z,73.90
2018-01-10T11:14:44.974Z,73.40
2018-01-10T11:17:12.465Z,73.10
2018-01-10T11:19:40.375Z,73.40
2018-01-10T11:22:07.870Z,73.30
2018-01-10T11:24:35.786Z,73.70
2018-01-10T11:27:04.101Z,74.30
2018-01-10T11:29:31.744Z,74.60
2018-01-10T11:31:59.638Z,74.10
2018-01-10T11:34:27.542Z,74.40
2018-01-10T11:36:55.438Z,74.40
2018-01-10T11:39:23.346Z,74.90
2018-01-10T11:41:50.831Z,75.20
2018-01-10T11:44:18.720Z,75.60
2018-01-10T11:46:46.618Z,76.50
2018-01-10T11:49:14.519Z,76.70
2018-01-10T11:51:43.174Z,76.20
2018-01-10T11:54:10.674Z,76.50
2018-01-10T11:56:38.191Z,76.60
2018-01-10T11:59:05.684Z,76.90
2018-01-10T12:01:33.214Z,77.00
2018-01-10T12:04:01.221Z,77.20
2018-01-10T12:08:57.602Z,77.60
2018-01-10T12:11:26.594Z,77.50
2018-01-10T12:13:54.502Z,77.60
2018-01-10T12:16:21.994Z,77.80
2018-01-10T12:18:49.914Z,78.00
2018-01-10T12:21:17.410Z,78.20
2018-01-10T12:23:44.929Z,78.10
2018-01-10T12:26:12.421Z,78.10
2018-01-10T12:28:39.955Z,78.00
2018-01-10T12:31:07.453Z,77.80
2018-01-10T12:33:34.997Z,78.00
2018-01-10T12:36:02.502Z,78.00
2018-01-10T12:38:30.394Z,78.00
2018-01-10T12:40:58.302Z,78.10
2018-01-10T12:43:26.569Z,78.00
2018-01-10T12:45:54.499Z,78.10
2018-01-10T12:48:21.995Z,78.20
2018-01-10T12:50:49.903Z,78.00
2018-01-10T12:53:17.799Z,78.20
2018-01-10T12:55:45.399Z,78.10
2018-01-10T12:58:13.675Z,78.10
2018-01-10T13:00:41.574Z,78.30
2018-01-10T13:03:09.096Z,78.20
2018-01-10T13:05:36.591Z,78.10
2018-01-10T13:08:04.106Z,78.30
2018-01-10T13:10:32.015Z,78.40
2018-01-10T13:12:59.926Z,78.60
2018-01-10T13:15:27.822Z,78.50
2018-01-10T13:17:55.342Z,78.40
2018-01-10T13:20:23.281Z,78.40
2018-01-10T13:22:50.769Z,78.60
2018-01-10T13:25:18.286Z,78.60
2018-01-10T13:27:46.174Z,78.80
2018-01-10T13:30:14.074Z,78.90
2018-01-10T13:32:41.566Z,78.60
2018-01-10T13:35:09.489Z,78.40
2018-01-10T13:37:37.388Z,78.10
2018-01-10T13:40:04.915Z,77.80
2018-01-10T13:42:32.809Z,78.00
2018-01-10T13:45:00.340Z,78.10
2018-01-10T13:47:28.622Z,78.10
2018-01-10T13:49:56.118Z,78.00
2018-01-10T13:52:23.639Z,78.10
2018-01-10T13:54:51.131Z,78.00
2018-01-10T13:57:19.063Z,77.70
2018-01-10T13:59:46.954Z,77.80
2018-01-10T14:02:15.251Z,77.70
2018-01-10T14:04:43.145Z,77.80
2018-01-10T14:07:11.423Z,77.70
2018-01-10T14:09:39.678Z,78.00
2018-01-10T14:12:07.968Z,77.80
2018-01-10T14:14:36.243Z,78.10
2018-01-10T14:17:04.144Z,78.10
2018-01-10T14:19:31.661Z,78.40
2018-01-10T14:21:59.157Z,78.50
2018-01-10T14:24:27.067Z,78.60
2018-01-10T14:26:54.989Z,78.50
2018-01-10T14:29:22.516Z,78.70
2018-01-10T14:31:50.003Z,78.90
2018-01-10T14:34:17.525Z,78.90
2018-01-10T14:36:45.417Z,78.90
2018-01-10T14:39:13.337Z,78.90
2018-01-10T14:41:40.830Z,79.00
2018-01-10T14:44:08.322Z,79.10
2018-01-10T14:46:36.227Z,79.20
2018-01-10T14:49:03.718Z,79.20
2018-01-10T14:51:31.237Z,79.40
2018-01-10T14:53:58.738Z,79.20
2018-01-10T14:56:27.014Z,79.10
2018-01-10T14:58:55.020Z,79.10
2018-01-10T15:01:22.954Z,79.10
2018-01-10T15:03:50.846Z,79.20
2018-01-10T15:06:19.122Z,79.10
2018-01-10T15:08:47.399Z,79.10
2018-01-10T15:11:14.894Z,79.40
2018-01-10T15:13:42.411Z,79.60
2018-01-10T15:16:09.910Z,79.50
2018-01-10T15:18:37.827Z,79.70
2018-01-10T15:21:05.330Z,79.60
2018-01-10T15:23:32.867Z,79.70
2018-01-10T15:26:00.362Z,79.80
2018-01-10T15:28:29.014Z,79.80
2018-01-10T15:30:57.318Z,79.80
2018-01-10T15:33:25.314Z,80.00
2018-01-10T15:35:53.575Z,79.90
2018-01-10T15:38:21.458Z,79.90
2018-01-10T15:40:48.982Z,79.90
2018-01-10T15:43:16.866Z,79.90
2018-01-10T15:45:44.786Z,79.80
2018-01-10T15:48:12.289Z,79.90
2018-01-10T15:50:39.906Z,80.00
2018-01-10T15:53:07.808Z,80.20
2018-01-10T15:55:36.098Z,80.20
2018-01-10T15:58:03.607Z,80.10
2018-01-10T16:00:31.555Z,80.10
2018-01-10T16:02:59.057Z,80.30
2018-01-10T16:05:26.971Z,80.40
2018-01-10T16:07:54.891Z,80.50
2018-01-10T16:10:23.202Z,80.90
2018-01-10T16:12:50.692Z,81.20
2018-01-10T16:15:18.187Z,81.20
2018-01-10T16:17:45.702Z,81.30
2018-01-10T16:20:13.595Z,81.40
2018-01-10T16:22:41.119Z,81.20
2018-01-10T16:25:09.023Z,81.40
2018-01-10T16:27:36.546Z,81.40
2018-01-10T16:30:04.480Z,81.40
2018-01-10T16:32:32.394Z,81.40
2018-01-10T16:35:00.282Z,81.40
2018-01-10T16:37:28.935Z,81.30
2018-01-10T16:39:56.430Z,81.40
2018-01-10T16:42:24.344Z,81.30
2018-01-10T16:44:51.835Z,81.40
2018-01-10T16:47:19.358Z,81.40
2018-01-10T16:49:47.255Z,81.20
2018-01-10T16:52:14.772Z,81.20
2018-01-10T16:54:42.264Z,81.40
2018-01-10T16:57:09.785Z,81.40
2018-01-10T16:59:37.318Z,81.60
2018-01-10T17:02:05.216Z,81.70
2018-01-10T17:04:32.743Z,81.50
2018-01-10T17:07:00.642Z,81.60
2018-01-10T17:09:28.169Z,81.90
2018-01-10T17:11:56.072Z,82.30
2018-01-10T17:14:23.597Z,82.10
2018-01-10T17:16:51.495Z,82.00
2018-01-10T17:19:19.411Z,82.30
2018-01-10T17:21:47.294Z,82.30
2018-01-10T17:24:15.329Z,82.30
2018-01-10T17:26:43.594Z,82.10
2018-01-10T17:29:11.486Z,82.00
2018-01-10T17:31:39.418Z,82.00
2018-01-10T17:34:06.905Z,81.90
2018-01-10T17:36:34.438Z,81.90
2018-01-10T17:39:02.343Z,81.90
2018-01-10T17:41:30.631Z,81.70
2018-01-10T17:43:59.258Z,81.80
2018-01-10T17:46:27.167Z,81.80
2018-01-10T17:48:55.119Z,81.80
2018-01-10T17:51:22.618Z,81.80
2018-01-10T17:53:50.510Z,81.80
2018-01-10T17:56:18.030Z,81.80
2018-01-10T17:58:45.914Z,81.80
2018-01-10T18:01:13.413Z,81.70
2018-01-10T18:03:40.934Z,81.80
2018-01-10T18:06:08.822Z,81.80
2018-01-10T18:08:36.748Z,81.70
2018-01-10T18:11:04.265Z,81.70
2018-01-10T18:13:31.863Z,81.80
2018-01-10T18:15:59.792Z,81.80
2018-01-10T18:18:27.701Z,81.70
2018-01-10T18:20:55.601Z,81.70
2018-01-10T18:23:23.534Z,81.80
2018-01-10T18:25:51.426Z,81.90
2018-01-10T18:28:19.370Z,81.90
2018-01-10T18:30:46.866Z,81.70
2018-01-10T18:33:14.360Z,81.80
2018-01-10T18:35:41.889Z,81.90
2018-01-10T18:38:09.402Z,81.80
2018-01-10T18:40:37.323Z,81.90
2018-01-10T18:43:04.826Z,82.10
2018-01-10T18:45:32.737Z,82.00
2018-01-10T18:48:00.251Z,82.10
2018-01-10T18:50:28.540Z,82.00
2018-01-10T18:52:56.055Z,81.90
2018-01-10T18:55:23.962Z,81.80
2018-01-10T18:57:52.230Z,81.90
2018-01-10T19:00:19.910Z,81.80
2018-01-10T19:02:47.435Z,82.10
2018-01-10T19:05:15.496Z,81.90
2018-01-10T19:07:43.375Z,81.90
2018-01-10T19:10:11.273Z,81.90
2018-01-10T19:12:38.814Z,81.90
2018-01-10T19:15:06.786Z,81.80
2018-01-10T19:17:34.750Z,81.80
2018-01-10T19:20:02.684Z,81.80
2018-01-10T19:22:30.632Z,81.60
2018-01-10T19:24:58.927Z,81.70
2018-01-10T19:27:26.447Z,82.00
2018-01-10T19:29:53.958Z,82.40
2018-01-10T19:32:22.995Z,82.50
2018-01-10T19:34:52.015Z,82.80
2018-01-10T19:37:19.540Z,82.60
2018-01-10T19:39:47.794Z,82.80
2018-01-10T19:42:15.722Z,82.80
2018-01-10T19:44:44.354Z,82.50
2018-01-10T19:47:11.858Z,82.40
2018-01-10T19:49:39.778Z,82.40
2018-01-10T19:52:08.090Z,82.30
2018-01-10T19:57:04.918Z,82.00
2018-01-10T19:59:33.579Z,82.40
2018-01-10T20:02:01.486Z,82.50
2018-01-10T20:04:29.422Z,82.50
